createdAt,value
2022-09-16T00:00:27.216Z,10.54
2022-09-16T00:04:14.215Z,10.48
2022-09-16T00:07:41.027Z,10.43
2022-09-16T00:11:07.902Z,10.37
2022-09-16T00:14:34.716Z,10.32
2022-09-16T00:18:01.440Z,10.26
2022-09-16T00:21:30.273Z,10.20
2022-09-16T00:24:57.947Z,10.16
2022-09-16T00:28:25.225Z,10.14
2022-09-16T00:31:52.403Z,10.14
2022-09-16T00:35:19.493Z,10.14
2022-09-16T00:38:47.084Z,10.15
2022-09-16T00:42:14.834Z,10.15
2022-09-16T00:45:42.076Z,10.15
2022-09-16T00:49:15.869Z,10.14
2022-09-16T00:52:44.339Z,10.13
2022-09-16T00:56:14.193Z,10.12
2022-09-16T00:59:44.980Z,10.09
2022-09-16T01:03:12.552Z,10.08
2022-09-16T01:06:41.209Z,10.04
2022-09-16T01:10:09.686Z,10.01
2022-09-16T01:13:37.373Z,9.98
2022-09-16T01:17:12.973Z,9.94
2022-09-16T01:21:00.030Z,9.90
2022-09-16T01:24:45.754Z,9.86
2022-09-16T01:28:36.103Z,9.82
2022-09-16T01:32:11.663Z,9.79
2022-09-16T01:36:01.112Z,9.75
2022-09-16T01:39:37.037Z,9.71
2022-09-16T01:43:16.279Z,9.69
2022-09-16T01:46:49.431Z,9.67
2022-09-16T01:50:24.192Z,9.64
2022-09-16T01:53:57.328Z,9.63
2022-09-16T01:57:29.173Z,9.59
2022-09-16T02:01:04.144Z,9.55
2022-09-16T02:04:34.141Z,9.51
2022-09-16T02:08:07.810Z,9.47
2022-09-16T02:11:36.769Z,9.43
2022-09-16T02:15:07.366Z,9.38
2022-09-16T02:18:37.917Z,9.33
2022-09-16T02:22:09.869Z,9.29
2022-09-16T02:25:41.023Z,9.26
2022-09-16T02:29:14.891Z,9.22
2022-09-16T02:32:47.708Z,9.19
2022-09-16T02:36:17.883Z,9.17
2022-09-16T02:39:49.660Z,9.17
2022-09-16T02:43:17.198Z,9.17
2022-09-16T02:46:55.555Z,9.17
2022-09-16T02:50:28.782Z,9.15
2022-09-16T02:54:03.288Z,9.14
2022-09-16T02:57:30.359Z,9.12
2022-09-16T03:00:59.119Z,9.10
2022-09-16T03:04:25.929Z,9.10
2022-09-16T03:07:52.633Z,9.09
2022-09-16T03:11:50.134Z,9.09
2022-09-16T03:15:29.282Z,9.07
2022-09-16T03:19:05.192Z,9.07
2022-09-16T03:22:44.151Z,9.06
2022-09-16T03:26:17.778Z,9.05
2022-09-16T03:29:51.236Z,9.04
2022-09-16T03:33:26.158Z,9.02
2022-09-16T03:37:01.403Z,9.01
2022-09-16T03:40:30.401Z,8.99
2022-09-16T03:44:03.569Z,8.96
2022-09-16T03:47:31.247Z,8.94
2022-09-16T03:50:58.752Z,8.94
2022-09-16T03:54:26.104Z,8.92
2022-09-16T03:57:53.828Z,8.92
2022-09-16T04:01:21.563Z,8.92
2022-09-16T04:04:48.790Z,8.93
2022-09-16T04:08:15.759Z,8.92
2022-09-16T04:11:43.272Z,8.92
2022-09-16T04:15:12.037Z,8.91
2022-09-16T04:18:39.060Z,8.91
2022-09-16T04:22:05.947Z,8.91
2022-09-16T04:25:33.922Z,8.91
2022-09-16T04:29:00.500Z,8.92
2022-09-16T04:32:27.197Z,8.93
2022-09-16T04:35:54.195Z,8.95
2022-09-16T04:39:21.398Z,8.96
2022-09-16T04:42:52.946Z,9.00
2022-09-16T04:46:19.678Z,9.03
2022-09-16T04:49:46.532Z,9.07
2022-09-16T04:53:13.140Z,9.13
2022-09-16T04:56:39.778Z,9.19
2022-09-16T05:00:08.347Z,9.25
2022-09-16T05:03:35.272Z,9.31
2022-09-16T05:07:02.059Z,9.39
2022-09-16T05:10:28.747Z,9.50
2022-09-16T05:13:55.988Z,9.66
2022-09-16T05:17:39.777Z,9.91
2022-09-16T05:21:13.696Z,10.26
2022-09-16T05:24:40.605Z,10.69
2022-09-16T05:28:07.279Z,11.08
2022-09-16T05:31:36.496Z,11.47
2022-09-16T05:35:03.549Z,11.75
2022-09-16T05:38:30.451Z,11.93
2022-09-16T05:41:59.377Z,12.04
2022-09-16T05:45:31.461Z,12.25
2022-09-16T05:48:59.512Z,12.48
2022-09-16T05:52:26.078Z,12.89
2022-09-16T05:56:01.121Z,13.34
2022-09-16T05:59:27.884Z,13.52
2022-09-16T06:02:54.649Z,13.49
2022-09-16T06:06:26.031Z,13.79
2022-09-16T06:09:53.151Z,14.02
2022-09-16T06:13:20.185Z,14.19
2022-09-16T06:16:47.318Z,14.51
2022-09-16T06:20:14.923Z,14.61
2022-09-16T06:23:42.785Z,14.68
2022-09-16T06:27:09.959Z,14.89
2022-09-16T06:30:36.827Z,15.07
2022-09-16T06:34:03.934Z,15.28
2022-09-16T06:37:30.914Z,15.47
2022-09-16T06:41:01.634Z,15.60
2022-09-16T06:44:28.547Z,15.58
2022-09-16T06:47:55.560Z,15.65
2022-09-16T06:51:24.059Z,15.76
2022-09-16T06:54:50.907Z,15.90
2022-09-16T06:58:17.622Z,15.89
2022-09-16T07:01:44.884Z,15.81
2022-09-16T07:05:12.469Z,15.82
2022-09-16T07:08:40.031Z,15.88
2022-09-16T07:12:07.944Z,15.98
2022-09-16T07:15:39.258Z,16.22
2022-09-16T07:19:17.849Z,16.46
2022-09-16T07:22:45.126Z,16.55
2022-09-16T07:26:15.486Z,16.58
2022-09-16T07:29:42.152Z,16.67
2022-09-16T07:33:08.840Z,16.59
2022-09-16T07:36:37.433Z,16.37
2022-09-16T07:40:04.785Z,16.46
2022-09-16T07:43:31.647Z,16.57
2022-09-16T07:46:58.459Z,16.65
2022-09-16T07:50:25.606Z,16.65
2022-09-16T07:53:56.598Z,16.71
2022-09-16T07:57:24.130Z,16.78
2022-09-16T08:00:51.489Z,16.84
2022-09-16T08:04:19.728Z,16.81
2022-09-16T08:07:46.521Z,16.77
2022-09-16T08:11:14.476Z,16.82
2022-09-16T08:14:41.160Z,17.03
2022-09-16T08:18:08.029Z,17.01
2022-09-16T08:21:34.777Z,16.90
2022-09-16T08:25:01.520Z,16.77
2022-09-16T08:28:39.940Z,16.72
2022-09-16T08:32:17.422Z,16.94
2022-09-16T08:35:44.084Z,17.00
2022-09-16T08:39:12.786Z,17.16
2022-09-16T08:42:59.321Z,17.26
2022-09-16T08:46:35.414Z,17.29
2022-09-16T08:50:06.485Z,17.32
2022-09-16T08:53:41.117Z,17.36
2022-09-16T08:57:12.191Z,17.31
2022-09-16T09:00:40.453Z,17.12
2022-09-16T09:04:07.744Z,17.04
2022-09-16T09:08:02.333Z,17.11
2022-09-16T09:11:36.027Z,17.33
2022-09-16T09:15:14.749Z,17.51
2022-09-16T09:18:46.459Z,17.79
2022-09-16T09:22:28.734Z,17.99
2022-09-16T09:25:59.700Z,18.10
2022-09-16T09:29:52.678Z,18.12
2022-09-16T09:33:46.042Z,17.80
2022-09-16T09:37:29.996Z,17.44
2022-09-16T09:41:01.329Z,17.37
2022-09-16T09:44:55.309Z,17.31
2022-09-16T09:48:27.915Z,17.20
2022-09-16T09:52:00.130Z,17.23
2022-09-16T09:55:32.747Z,17.33
2022-09-16T09:59:05.607Z,17.48
2022-09-16T10:02:32.185Z,17.77
2022-09-16T10:05:58.987Z,18.00
2022-09-16T10:09:26.204Z,18.17
2022-09-16T10:12:53.532Z,18.28
2022-09-16T10:16:22.721Z,18.20
2022-09-16T10:19:57.996Z,18.19
2022-09-16T10:23:29.759Z,18.19
2022-09-16T10:26:57.739Z,17.99
2022-09-16T10:30:24.633Z,17.89
2022-09-16T10:33:51.569Z,18.05
2022-09-16T10:37:20.526Z,18.25
2022-09-16T10:40:55.990Z,18.39
2022-09-16T10:44:26.285Z,18.59
2022-09-16T10:47:56.883Z,18.85
2022-09-16T10:51:27.259Z,19.04
2022-09-16T10:54:54.772Z,19.27
2022-09-16T10:58:21.897Z,19.30
2022-09-16T11:01:57.380Z,19.23
2022-09-16T11:05:33.699Z,19.25
2022-09-16T11:09:12.593Z,19.27
2022-09-16T11:12:55.775Z,19.17
2022-09-16T11:16:50.741Z,19.15
2022-09-16T11:20:43.551Z,19.17
2022-09-16T11:24:45.511Z,19.19
2022-09-16T11:28:33.572Z,19.10
2022-09-16T11:32:11.805Z,19.01
2022-09-16T11:36:17.742Z,19.19
2022-09-16T11:39:58.740Z,19.51
2022-09-16T11:43:44.132Z,19.37
2022-09-16T11:47:27.464Z,19.18
2022-09-16T11:51:02.324Z,19.30
2022-09-16T11:54:44.933Z,19.28
2022-09-16T11:58:21.609Z,19.08
2022-09-16T12:01:54.435Z,18.71
2022-09-16T12:05:24.366Z,18.41
2022-09-16T12:09:00.221Z,18.19
2022-09-16T12:12:32.506Z,17.84
2022-09-16T12:16:03.203Z,17.52
2022-09-16T12:19:34.895Z,17.23
2022-09-16T12:23:07.718Z,17.01
2022-09-16T12:26:39.961Z,17.14
2022-09-16T12:30:15.092Z,17.36
2022-09-16T12:33:51.656Z,17.60
2022-09-16T12:37:30.922Z,17.78
2022-09-16T12:41:13.548Z,18.00
2022-09-16T12:44:55.480Z,18.25
2022-09-16T12:49:01.848Z,18.52
2022-09-16T12:52:46.738Z,18.91
2022-09-16T12:56:21.921Z,19.13
2022-09-16T13:00:15.384Z,19.25
2022-09-16T13:03:46.402Z,19.10
2022-09-16T13:07:23.836Z,18.84
2022-09-16T13:11:30.305Z,18.58
2022-09-16T13:14:55.298Z,18.61
2022-09-16T13:18:38.646Z,18.72
2022-09-16T13:22:16.078Z,18.80
2022-09-16T13:25:51.693Z,18.97
2022-09-16T13:29:41.634Z,19.20
2022-09-16T13:33:29.483Z,19.25
2022-09-16T13:36:56.369Z,18.95
2022-09-16T13:40:25.880Z,18.72
2022-09-16T13:43:52.660Z,18.51
2022-09-16T13:47:31.701Z,18.19
2022-09-16T13:51:01.231Z,17.86
2022-09-16T13:54:53.507Z,17.60
2022-09-16T13:58:30.929Z,17.27
2022-09-16T14:02:09.425Z,17.18
2022-09-16T14:06:00.853Z,17.26
2022-09-16T14:09:44.122Z,17.31
2022-09-16T14:13:16.835Z,17.24
2022-09-16T14:16:46.162Z,17.09
2022-09-16T14:20:19.495Z,16.83
2022-09-16T14:23:46.290Z,16.62
2022-09-16T14:27:23.591Z,16.60
2022-09-16T14:30:53.713Z,16.57
2022-09-16T14:34:27.784Z,16.52
2022-09-16T14:37:58.632Z,16.53
2022-09-16T14:41:32.147Z,16.56
2022-09-16T14:45:01.086Z,16.60
2022-09-16T14:48:34.358Z,16.57
2022-09-16T14:52:03.135Z,16.60
2022-09-16T14:55:31.494Z,16.64
2022-09-16T14:59:00.209Z,16.68
2022-09-16T15:02:31.806Z,16.70
2022-09-16T15:06:05.596Z,16.73
2022-09-16T15:09:42.615Z,16.75
2022-09-16T15:13:14.059Z,16.78
2022-09-16T15:16:46.440Z,16.76
2022-09-16T15:20:25.735Z,16.67
2022-09-16T15:23:54.566Z,16.56
2022-09-16T15:27:26.687Z,16.51
2022-09-16T15:30:55.479Z,16.47
2022-09-16T15:34:25.351Z,16.40
2022-09-16T15:37:58.220Z,16.35
2022-09-16T15:41:25.482Z,16.31
2022-09-16T15:44:56.253Z,16.19
2022-09-16T15:48:24.192Z,16.07
2022-09-16T15:51:53.275Z,16.01
2022-09-16T15:55:30.764Z,16.01
2022-09-16T15:59:02.702Z,15.98
2022-09-16T16:02:37.355Z,15.92
2022-09-16T16:06:05.005Z,15.86
2022-09-16T16:09:39.050Z,15.81
2022-09-16T16:13:06.566Z,15.75
2022-09-16T16:16:45.653Z,15.71
2022-09-16T16:20:22.864Z,15.62
2022-09-16T16:23:49.699Z,15.52
2022-09-16T16:27:16.399Z,15.40
2022-09-16T16:30:43.681Z,15.31
2022-09-16T16:34:10.340Z,15.22
2022-09-16T16:37:46.470Z,15.11
2022-09-16T16:41:14.779Z,14.99
2022-09-16T16:44:42.219Z,14.85
2022-09-16T16:48:10.938Z,14.72
2022-09-16T16:51:37.438Z,14.59
2022-09-16T16:55:04.658Z,14.45
2022-09-16T16:58:33.182Z,14.31
2022-09-16T17:02:00.383Z,14.18
2022-09-16T17:05:27.275Z,14.05
2022-09-16T17:08:53.905Z,13.90
2022-09-16T17:12:20.574Z,13.74
2022-09-16T17:15:47.522Z,13.60
2022-09-16T17:19:14.964Z,13.45
2022-09-16T17:22:42.138Z,13.32
2022-09-16T17:26:10.365Z,13.17
2022-09-16T17:29:37.099Z,13.03
2022-09-16T17:33:03.792Z,12.91
2022-09-16T17:36:31.619Z,12.79
2022-09-16T17:39:58.464Z,12.68
2022-09-16T17:43:32.193Z,12.60
2022-09-16T17:46:59.517Z,12.53
2022-09-16T17:50:26.658Z,12.47
2022-09-16T17:53:53.570Z,12.42
2022-09-16T17:57:20.228Z,12.40
2022-09-16T18:00:47.284Z,12.38
2022-09-16T18:04:14.481Z,12.36
2022-09-16T18:07:41.543Z,12.34
2022-09-16T18:11:10.521Z,12.31
2022-09-16T18:14:37.387Z,12.29
2022-09-16T18:18:04.545Z,12.27
2022-09-16T18:21:33.215Z,12.24
2022-09-16T18:25:00.134Z,12.19
2022-09-16T18:28:26.824Z,12.15
2022-09-16T18:31:54.833Z,12.09
2022-09-16T18:35:21.624Z,12.05
2022-09-16T18:38:52.859Z,12.00
2022-09-16T18:42:20.439Z,11.98
2022-09-16T18:45:47.422Z,11.95
2022-09-16T18:49:16.393Z,11.93
2022-09-16T18:52:43.974Z,11.93
2022-09-16T18:56:15.352Z,11.93
2022-09-16T18:59:42.224Z,11.95
2022-09-16T19:03:09.002Z,11.95
2022-09-16T19:06:38.839Z,11.95
2022-09-16T19:10:06.049Z,11.93
2022-09-16T19:13:33.326Z,11.90
2022-09-16T19:17:00.258Z,11.84
2022-09-16T19:20:27.269Z,11.78
2022-09-16T19:23:58.902Z,11.71
2022-09-16T19:27:25.779Z,11.65
2022-09-16T19:30:53.346Z,11.58
2022-09-16T19:34:22.749Z,11.52
2022-09-16T19:37:51.175Z,11.44
2022-09-16T19:41:19.500Z,11.37
2022-09-16T19:44:46.399Z,11.29
2022-09-16T19:48:13.098Z,11.21
2022-09-16T19:51:39.691Z,11.14
2022-09-16T19:55:07.699Z,11.07
2022-09-16T19:58:36.050Z,11.01
2022-09-16T20:02:03.752Z,10.97
2022-09-16T20:05:31.147Z,10.92
2022-09-16T20:08:59.848Z,10.87
2022-09-16T20:12:26.757Z,10.82
2022-09-16T20:15:57.239Z,10.78
2022-09-16T20:19:23.873Z,10.74
2022-09-16T20:22:50.604Z,10.68
2022-09-16T20:26:19.837Z,10.64
2022-09-16T20:29:46.782Z,10.58
2022-09-16T20:33:13.659Z,10.52
2022-09-16T20:36:41.615Z,10.45
2022-09-16T20:40:10.363Z,10.39
2022-09-16T20:43:38.256Z,10.34
2022-09-16T20:47:05.121Z,10.29
2022-09-16T20:50:31.844Z,10.22
2022-09-16T20:54:04.929Z,10.15
2022-09-16T20:57:34.034Z,10.09
2022-09-16T21:01:07.884Z,10.03
2022-09-16T21:04:34.579Z,9.97
2022-09-16T21:08:01.610Z,9.91
2022-09-16T21:11:30.204Z,9.87
2022-09-16T21:14:57.900Z,9.84
2022-09-16T21:18:25.466Z,9.80
2022-09-16T21:21:52.753Z,9.77
2022-09-16T21:25:19.461Z,9.74
2022-09-16T21:28:51.297Z,9.69
2022-09-16T21:32:18.237Z,9.65
2022-09-16T21:35:52.970Z,9.61
2022-09-16T21:39:21.838Z,9.58
2022-09-16T21:42:48.938Z,9.53
2022-09-16T21:46:17.163Z,9.49
2022-09-16T21:49:44.796Z,9.46
2022-09-16T21:53:11.920Z,9.43
2022-09-16T21:56:41.084Z,9.40
2022-09-16T22:00:13.162Z,9.39
2022-09-16T22:03:38.615Z,9.39
2022-09-16T22:07:05.446Z,9.40
2022-09-16T22:10:32.947Z,9.37
2022-09-16T22:14:01.019Z,9.34
2022-09-16T22:17:28.914Z,9.29
2022-09-16T22:20:58.603Z,9.26
2022-09-16T22:24:25.265Z,9.23
2022-09-16T22:27:52.909Z,9.19
2022-09-16T22:31:22.669Z,9.16
2022-09-16T22:34:47.892Z,9.12
2022-09-16T22:38:14.594Z,9.09
2022-09-16T22:41:41.608Z,9.05
2022-09-16T22:45:10.571Z,9.03
2022-09-16T22:48:37.411Z,8.99
2022-09-16T22:52:04.991Z,8.96
2022-09-16T22:55:32.524Z,8.92
2022-09-16T22:58:59.897Z,8.87
2022-09-16T23:02:26.626Z,8.84
2022-09-16T23:06:01.569Z,8.80
2022-09-16T23:09:28.577Z,8.77
2022-09-16T23:12:55.463Z,8.73
2022-09-16T23:16:27.071Z,8.69
2022-09-16T23:19:54.701Z,8.65
2022-09-16T23:23:21.422Z,8.61
2022-09-16T23:26:49.326Z,8.57
2022-09-16T23:30:16.784Z,8.52
2022-09-16T23:33:44.653Z,8.49
2022-09-16T23:37:11.205Z,8.45
2022-09-16T23:40:41.073Z,8.43
2022-09-16T23:44:08.241Z,8.41
2022-09-16T23:47:35.005Z,8.39
2022-09-16T23:51:02.100Z,8.38
2022-09-16T23:54:29.078Z,8.40
2022-09-16T23:57:55.779Z,8.41
